Time;durP1;ratioP1;P1;durP2;ratioP2;P2;SDS_P1;SDS_P2;PMS_P1;PMS_P2;Temp;Humidity;BMP_temperature;BMP_pressure;BME280_temperature;BME280_humidity;BME280_pressure;Samples;Min_cycle;Max_cycle;Signal;HPM_P1;HPM_P2
2021/10/30 00:00:16;;;;;;;6.63;4.47;;;;;;;0.97;100.00;92575.03;2100690;28;20020;-84
2021/10/30 00:01:17;;;;;;;6.28;4.15;;;;;;;0.97;100.00;92571.66;2103952;28;20031;-86
2021/10/30 00:02:18;;;;;;;7.70;4.55;;;;;;;0.93;100.00;92569.00;2114712;27;20483;-85
2021/10/30 00:03:19;;;;;;;5.60;4.43;;;;;;;0.94;100.00;92573.13;2121986;27;20092;-85
2021/10/30 00:04:20;;;;;;;6.95;4.53;;;;;;;0.95;100.00;92565.97;2108957;28;20012;-84
2021/10/30 00:05:26;;;;;;;4.93;3.83;;;;;;;0.90;100.00;92571.59;2096282;28;20020;-85
2021/10/30 00:06:31;;;;;;;7.65;4.25;;;;;;;0.87;100.00;92561.81;2104641;27;20017;-86
2021/10/30 00:07:32;;;;;;;5.25;3.97;;;;;;;0.83;100.00;92561.78;2123292;27;20023;-89
2021/10/30 00:08:33;;;;;;;4.88;4.30;;;;;;;0.84;100.00;92565.19;2110564;28;20044;-86
2021/10/30 00:09:40;;;;;;;11.27;4.82;;;;;;;0.82;100.00;92560.28;2106443;28;20125;-87
2021/10/30 00:10:44;;;;;;;6.97;4.10;;;;;;;0.78;100.00;92564.75;2112699;27;20099;-89
2021/10/30 00:11:45;;;;;;;8.55;4.28;;;;;;;0.79;100.00;92557.63;2115385;28;20028;-87
2021/10/30 00:12:46;;;;;;;5.78;4.40;;;;;;;0.85;100.00;92554.28;2109528;28;20020;-87
2021/10/30 00:13:47;;;;;;;6.28;4.50;;;;;;;0.96;100.00;92557.72;2104144;28;20553;-85
2021/10/30 00:14:48;;;;;;;6.22;4.38;;;;;;;1.08;100.00;92558.53;2116948;27;20069;-86
2021/10/30 00:15:49;;;;;;;7.80;4.75;;;;;;;1.10;100.00;92551.78;2122377;27;20027;-84
2021/10/30 00:16:50;;;;;;;8.05;4.97;;;;;;;1.06;100.00;92555.53;2119975;27;20051;-85
2021/10/30 00:17:52;;;;;;;6.32;4.63;;;;;;;1.15;100.00;92559.31;2109198;28;20098;-87
2021/10/30 00:18:53;;;;;;;5.97;4.53;;;;;;;1.12;100.00;92546.91;2107191;28;20113;-84
2021/10/30 00:19:54;;;;;;;6.45;4.70;;;;;;;1.23;100.00;92552.22;2117638;27;20038;-85
2021/10/30 00:20:57;;;;;;;6.93;4.70;;;;;;;1.19;100.00;92543.56;2112320;28;20032;-84
2021/10/30 00:21:58;;;;;;;6.43;4.75;;;;;;;1.22;100.00;92540.16;2100119;28;20417;-87
2021/10/30 00:22:59;;;;;;;6.63;4.50;;;;;;;1.16;100.00;92536.38;2098305;28;20103;-83
2021/10/30 00:24:00;;;;;;;5.57;4.25;;;;;;;1.05;100.00;92540.84;2105008;28;20469;-88
2021/10/30 00:25:02;;;;;;;6.68;5.05;;;;;;;1.00;100.00;92539.31;2103733;28;20016;-89
2021/10/30 00:26:03;;;;;;;7.75;5.18;;;;;;;1.03;100.00;92522.06;2101577;28;20533;-88
2021/10/30 00:27:08;;;;;;;8.65;4.50;;;;;;;0.96;100.00;92520.88;2106321;28;20032;-87
2021/10/30 00:28:09;;;;;;;6.00;4.50;;;;;;;0.95;100.00;92521.25;2102683;28;20024;-86
2021/10/30 00:29:10;;;;;;;5.63;4.55;;;;;;;0.93;100.00;92519.00;2107146;28;20560;-85
2021/10/30 00:30:11;;;;;;;11.77;4.55;;;;;;;0.92;100.00;92517.50;2104133;28;20016;-83
2021/10/30 00:31:12;;;;;;;5.95;4.30;;;;;;;0.91;100.00;92520.47;2101093;28;20107;-83
2021/10/30 00:32:13;;;;;;;7.53;4.35;;;;;;;0.90;100.00;92522.38;2104561;28;20542;-85
2021/10/30 00:33:14;;;;;;;5.95;4.03;;;;;;;0.83;100.00;92511.78;2100141;28;20115;-84
2021/10/30 00:34:15;;;;;;;6.38;4.45;;;;;;;0.85;100.00;92517.47;2106216;28;20020;-86
2021/10/30 00:35:16;;;;;;;5.53;4.25;;;;;;;0.92;100.00;92514.09;2118308;27;20035;-85
2021/10/30 00:36:17;;;;;;;5.72;4.50;;;;;;;0.88;100.00;92513.31;2111981;28;20060;-87
2021/10/30 00:37:17;;;;;;;6.35;3.60;;;;;;;0.92;100.00;92509.59;2111110;28;20540;-85
2021/10/30 00:38:18;;;;;;;5.30;3.70;;;;;;;0.95;100.00;92513.38;2109523;28;20042;-88
2021/10/30 00:39:20;;;;;;;5.35;4.30;;;;;;;0.94;100.00;92507.34;2106515;28;20020;-88
2021/10/30 00:40:21;;;;;;;7.72;4.20;;;;;;;0.95;100.00;92514.13;2107219;27;20023;-86
2021/10/30 00:41:22;;;;;;;4.75;3.83;;;;;;;0.92;100.00;92512.25;2106434;28;20077;-82
2021/10/30 00:42:23;;;;;;;8.20;4.30;;;;;;;0.86;100.00;92516.34;2092036;28;20025;-84
2021/10/30 00:43:24;;;;;;;5.93;3.92;;;;;;;0.79;100.00;92518.16;2102997;28;20017;-87
2021/10/30 00:44:25;;;;;;;6.55;4.35;;;;;;;0.85;100.00;92516.72;2100902;28;20034;-85
2021/10/30 00:45:26;;;;;;;8.90;4.10;;;;;;;0.81;100.00;92521.94;2102450;28;20028;-88
2021/10/30 00:46:27;;;;;;;6.28;3.78;;;;;;;0.78;100.00;92520.03;2109167;28;20023;-88
2021/10/30 00:47:28;;;;;;;7.07;4.07;;;;;;;0.80;100.00;92517.81;2112713;28;20902;-88
2021/10/30 00:48:29;;;;;;;6.25;4.15;;;;;;;0.80;100.00;92523.06;2116781;28;20028;-84
2021/10/30 00:49:32;;;;;;;6.88;4.40;;;;;;;0.81;100.00;92523.81;2117818;27;20020;-82
2021/10/30 00:50:32;;;;;;;9.55;4.70;;;;;;;0.83;100.00;92524.19;2113007;27;20020;-84
2021/10/30 00:51:36;;;;;;;5.90;4.03;;;;;;;0.76;100.00;92522.31;2120613;27;20164;-85
2021/10/30 00:52:42;;;;;;;4.53;3.70;;;;;;;0.75;100.00;92516.28;2108151;28;20020;-86
2021/10/30 00:53:45;;;;;;;10.65;4.22;;;;;;;0.82;100.00;92515.56;2106579;27;20016;-89
2021/10/30 00:54:47;;;;;;;5.80;4.40;;;;;;;0.84;100.00;92513.31;2109422;28;20031;-87
2021/10/30 00:55:48;;;;;;;8.43;4.20;;;;;;;0.89;100.00;92512.97;2111853;28;20105;-86
2021/10/30 00:56:53;;;;;;;7.95;4.63;;;;;;;0.79;100.00;92515.53;2108921;28;20461;-89
2021/10/30 00:57:57;;;;;;;6.32;4.40;;;;;;;0.84;100.00;92507.31;2106712;28;20020;-87
2021/10/30 00:59:04;;;;;;;5.25;4.10;;;;;;;0.79;100.00;92507.66;2111136;27;20453;-85
2021/10/30 01:00:06;;;;;;;5.82;4.15;;;;;;;0.76;100.00;92506.53;2112264;28;20027;-82
2021/10/30 01:01:07;;;;;;;7.35;4.28;;;;;;;0.74;100.00;92514.00;2109169;28;20023;-86
2021/10/30 01:02:08;;;;;;;6.32;4.30;;;;;;;0.59;100.00;92501.91;2111707;28;20508;-87
2021/10/30 01:03:09;;;;;;;8.15;4.00;;;;;;;0.60;100.00;92504.16;2106738;28;20020;-86
2021/10/30 01:04:10;;;;;;;7.97;4.47;;;;;;;0.68;100.00;92510.22;2113681;27;20039;-87
2021/10/30 01:05:12;;;;;;;9.32;5.05;;;;;;;0.63;100.00;92508.69;2104751;28;20024;-86
2021/10/30 01:06:13;;;;;;;5.15;4.30;;;;;;;0.64;100.00;92507.56;2097962;28;20544;-90
2021/10/30 01:07:15;;;;;;;6.50;4.13;;;;;;;0.69;100.00;92506.47;2106791;28;20027;-86
2021/10/30 01:08:18;;;;;;;6.10;3.95;;;;;;;0.65;100.00;92498.56;2114732;28;20043;-84
2021/10/30 01:09:20;;;;;;;5.03;4.18;;;;;;;0.63;100.00;92505.31;2105216;28;20016;-84
2021/10/30 01:10:22;;;;;;;5.90;3.90;;;;;;;0.58;100.00;92503.03;2106746;28;20508;-86
2021/10/30 01:11:23;;;;;;;4.05;3.63;;;;;;;0.64;100.00;92494.44;2104550;28;20020;-87
2021/10/30 01:12:24;;;;;;;4.05;3.72;;;;;;;0.64;100.00;92497.06;2106158;28;20095;-86
2021/10/30 01:13:27;;;;;;;7.47;3.85;;;;;;;0.65;100.00;92500.44;2105735;28;20028;-84
2021/10/30 01:14:28;;;;;;;6.63;3.75;;;;;;;0.66;100.00;92501.94;2095648;28;20101;-86
2021/10/30 01:15:29;;;;;;;5.72;4.00;;;;;;;0.65;100.00;92501.19;2105204;28;20051;-85
2021/10/30 01:16:30;;;;;;;8.00;4.22;;;;;;;0.71;100.00;92496.34;2111241;28;20028;-82
2021/10/30 01:17:32;;;;;;;6.00;3.78;;;;;;;0.69;100.00;92494.06;2108512;28;20024;-89
2021/10/30 01:18:33;;;;;;;7.45;4.18;;;;;;;0.66;100.00;92496.69;2094941;28;20032;-86
2021/10/30 01:19:35;;;;;;;7.00;4.43;;;;;;;0.62;100.00;92498.56;2103979;28;20504;-85
2021/10/30 01:20:36;;;;;;;4.85;3.88;;;;;;;0.71;100.00;92498.97;2106585;28;20020;-85
2021/10/30 01:21:37;;;;;;;4.50;3.83;;;;;;;0.68;100.00;92494.44;2098185;28;20086;-88
2021/10/30 01:22:39;;;;;;;5.10;4.18;;;;;;;0.66;100.00;92497.47;2102124;28;20088;-83
2021/10/30 01:23:40;;;;;;;5.55;4.32;;;;;;;0.68;100.00;92495.19;2112997;28;20023;-86
2021/10/30 01:24:41;;;;;;;8.05;4.18;;;;;;;0.71;100.00;92491.09;2117170;27;20396;-85
2021/10/30 01:25:45;;;;;;;6.35;4.10;;;;;;;0.53;100.00;92495.47;2102932;28;20030;-84
2021/10/30 01:26:46;;;;;;;5.68;3.70;;;;;;;0.56;100.00;92489.50;2107619;27;20024;-87
2021/10/30 01:27:49;;;;;;;5.88;3.80;;;;;;;0.52;100.00;92484.22;2117215;27;20102;-86
2021/10/30 01:28:51;;;;;;;6.65;3.88;;;;;;;0.47;100.00;92479.31;2106991;28;20028;-87
2021/10/30 01:29:52;;;;;;;5.90;3.50;;;;;;;0.47;100.00;92493.22;2108832;28;20028;-82
2021/10/30 01:30:54;;;;;;;7.20;4.00;;;;;;;0.38;100.00;92490.16;2109235;28;20422;-84
2021/10/30 01:31:55;;;;;;;7.25;3.83;;;;;;;0.48;100.00;92483.44;2106619;28;20081;-87
2021/10/30 01:32:59;;;;;;;5.40;3.97;;;;;;;0.47;100.00;92485.31;2114890;28;20027;-86
2021/10/30 01:34:07;;;;;;;4.78;3.78;;;;;;;0.45;100.00;92479.69;2110266;28;20012;-86
2021/10/30 01:35:09;;;;;;;5.90;4.10;;;;;;;0.43;100.00;92486.41;2106075;27;20016;-86
2021/10/30 01:36:10;;;;;;;4.55;3.53;;;;;;;0.46;100.00;92489.06;2111213;28;20020;-84
2021/10/30 01:37:12;;;;;;;7.65;3.88;;;;;;;0.40;100.00;92484.53;2111826;28;20496;-88
2021/10/30 01:38:14;;;;;;;5.43;3.08;;;;;;;0.42;100.00;92482.28;2106490;28;20016;-82
2021/10/30 01:39:16;;;;;;;4.75;3.28;;;;;;;0.27;100.00;92486.72;2098053;28;20048;-86
2021/10/30 01:40:17;;;;;;;4.68;3.35;;;;;;;0.24;100.00;92482.94;2110297;28;20015;-83
2021/10/30 01:41:22;;;;;;;6.88;3.97;;;;;;;0.16;100.00;92484.00;2112185;28;20015;-89
2021/10/30 01:42:23;;;;;;;5.63;3.65;;;;;;;0.22;100.00;92485.19;2104900;28;20483;-85
2021/10/30 01:43:24;;;;;;;7.70;3.45;;;;;;;0.26;100.00;92482.56;2111847;28;20019;-86
2021/10/30 01:44:26;;;;;;;5.63;3.70;;;;;;;0.27;100.00;92480.72;2118271;27;20030;-89
2021/10/30 01:45:28;;;;;;;4.90;3.45;;;;;;;0.21;100.00;92482.91;2115805;27;20026;-87
2021/10/30 01:46:29;;;;;;;4.38;3.65;;;;;;;0.27;100.00;92483.34;2116304;27;20019;-88
2021/10/30 01:47:30;;;;;;;3.95;3.50;;;;;;;0.22;100.00;92476.53;2108301;28;20092;-86
2021/10/30 01:48:34;;;;;;;3.55;3.00;;;;;;;0.22;100.00;92472.03;2113437;28;20038;-84
2021/10/30 01:49:35;;;;;;;4.63;3.42;;;;;;;0.23;100.00;92484.06;2100426;28;20515;-87
2021/10/30 01:50:38;;;;;;;7.55;3.25;;;;;;;0.21;100.00;92475.03;2101666;28;20103;-83
2021/10/30 01:51:39;;;;;;;4.72;3.33;;;;;;;0.22;100.00;92468.63;2107451;28;20046;-83
2021/10/30 01:52:41;;;;;;;6.47;2.92;;;;;;;0.24;100.00;92469.03;2111260;28;20027;-86
2021/10/30 01:53:43;;;;;;;3.95;3.40;;;;;;;0.31;100.00;92470.94;2114566;28;20031;-88
2021/10/30 01:54:44;;;;;;;6.60;3.47;;;;;;;0.35;100.00;92467.25;2103554;28;20024;-85
2021/10/30 01:55:46;;;;;;;5.95;4.03;;;;;;;0.44;100.00;92465.03;2111480;28;20069;-85
2021/10/30 01:56:48;;;;;;;4.32;3.42;;;;;;;0.30;100.00;92464.94;2107242;28;20477;-85
2021/10/30 01:57:50;;;;;;;5.65;2.97;;;;;;;0.33;100.00;92463.47;2120526;27;20019;-86
2021/10/30 01:58:51;;;;;;;4.18;3.28;;;;;;;0.24;100.00;92458.53;2107842;28;20499;-83
2021/10/30 01:59:52;;;;;;;4.85;3.55;;;;;;;0.43;100.00;92457.50;2103862;28;20030;-86
2021/10/30 02:00:57;;;;;;;5.75;3.22;;;;;;;0.33;100.00;92455.56;2093922;28;20027;-85
2021/10/30 02:01:58;;;;;;;4.03;2.45;;;;;;;0.25;100.00;92454.78;2094686;28;20032;-87
2021/10/30 02:02:59;;;;;;;6.15;3.08;;;;;;;0.28;100.00;92453.31;2106778;28;20477;-85
2021/10/30 02:04:00;;;;;;;9.23;3.75;;;;;;;0.24;100.00;92455.91;2118952;27;20027;-83
2021/10/30 02:05:01;;;;;;;5.68;2.95;;;;;;;0.24;100.00;92448.03;2111907;28;20028;-88
2021/10/30 02:06:09;;;;;;;6.35;3.65;;;;;;;0.24;100.00;92445.41;2121942;27;20516;-88
2021/10/30 02:08:22;;;;;;;;;;;;;;;0.30;100.00;92446.53;2133113;27;20588;-85
2021/10/30 02:09:23;;;;;;;7.03;3.00;;;;;;;0.18;100.00;92438.97;2122054;28;20351;-86
2021/10/30 02:10:25;;;;;;;5.90;2.97;;;;;;;0.10;100.00;92446.06;2113005;28;20030;-86
2021/10/30 02:11:26;;;;;;;4.63;3.03;;;;;;;0.17;100.00;92446.09;2113671;28;20050;-84
2021/10/30 02:12:27;;;;;;;7.47;3.83;;;;;;;0.13;100.00;92444.56;2105055;28;20025;-88
2021/10/30 02:13:29;;;;;;;7.50;3.20;;;;;;;0.14;100.00;92435.56;2117116;28;20085;-89
2021/10/30 02:14:30;;;;;;;7.85;3.70;;;;;;;0.16;100.00;92441.22;2121916;28;20031;-86
2021/10/30 02:15:32;;;;;;;4.43;3.42;;;;;;;0.13;100.00;92432.19;2113537;28;20039;-88
2021/10/30 02:16:33;;;;;;;5.85;3.40;;;;;;;0.15;100.00;92432.56;2104433;28;20036;-84
2021/10/30 02:17:34;;;;;;;7.18;3.33;;;;;;;0.19;100.00;92429.97;2113655;28;20024;-87
2021/10/30 02:18:35;;;;;;;8.98;3.38;;;;;;;0.22;100.00;92434.47;2121840;28;20045;-88
2021/10/30 02:19:36;;;;;;;6.32;3.50;;;;;;;0.13;100.00;92437.47;2122045;28;20019;-87
2021/10/30 02:20:37;;;;;;;8.40;3.25;;;;;;;0.07;100.00;92425.00;2106291;28;20028;-85
2021/10/30 02:21:38;;;;;;;9.15;3.58;;;;;;;0.20;100.00;92434.09;2105270;28;20032;-85
2021/10/30 02:22:39;;;;;;;5.75;3.20;;;;;;;0.15;100.00;92426.56;2096279;28;20477;-87
2021/10/30 02:23:40;;;;;;;7.10;3.38;;;;;;;0.28;100.00;92422.50;2105050;28;20028;-85
2021/10/30 02:24:42;;;;;;;5.97;3.60;;;;;;;0.19;100.00;92419.47;2102687;28;20365;-86
2021/10/30 02:25:43;;;;;;;5.47;3.60;;;;;;;0.07;100.00;92420.50;2105216;28;20016;-88
2021/10/30 02:26:44;;;;;;;9.73;3.63;;;;;;;0.11;100.00;92425.78;2115399;28;20023;-86
2021/10/30 02:27:45;;;;;;;3.58;3.20;;;;;;;0.10;100.00;92422.41;2103988;28;20524;-85
2021/10/30 02:28:46;;;;;;;4.93;3.65;;;;;;;0.13;100.00;92416.44;2106429;28;20027;-86
2021/10/30 02:29:47;;;;;;;4.82;3.13;;;;;;;0.10;100.00;92421.66;2105031;28;20020;-87
2021/10/30 02:30:48;;;;;;;4.10;3.15;;;;;;;0.02;100.00;92418.22;2105577;27;20074;-86
2021/10/30 02:31:49;;;;;;;3.78;3.47;;;;;;;0.08;100.00;92416.00;2114638;28;20112;-86
2021/10/30 02:32:51;;;;;;;6.80;3.45;;;;;;;0.04;100.00;92417.84;2104671;28;20039;-86
2021/10/30 02:33:52;;;;;;;8.40;3.95;;;;;;;0.07;100.00;92411.88;2096687;28;20070;-87
2021/10/30 02:34:53;;;;;;;4.78;2.97;;;;;;;0.03;100.00;92414.47;2099107;28;20021;-83
2021/10/30 02:35:54;;;;;;;7.72;3.85;;;;;;;0.02;100.00;92412.22;2104905;28;20039;-86
2021/10/30 02:36:56;;;;;;;5.18;3.80;;;;;;;-0.02;100.00;92409.56;2103562;28;20024;-86
2021/10/30 02:37:57;;;;;;;4.38;3.42;;;;;;;0.03;100.00;92400.59;2113052;28;20042;-86
2021/10/30 02:38:59;;;;;;;6.47;4.80;;;;;;;0.03;100.00;92409.22;2113646;28;20023;-85
2021/10/30 02:40:00;;;;;;;7.63;3.38;;;;;;;0.03;100.00;92405.84;2101792;28;20024;-89
2021/10/30 02:41:01;;;;;;;4.32;3.67;;;;;;;0.09;100.00;92401.75;2101957;28;20028;-86
2021/10/30 02:42:02;;;;;;;4.75;3.70;;;;;;;0.09;100.00;92402.53;2102766;28;20024;-84
2021/10/30 02:43:03;;;;;;;4.00;3.50;;;;;;;0.08;100.00;92400.25;2096555;28;20066;-87
2021/10/30 02:44:04;;;;;;;3.78;3.42;;;;;;;0.01;100.00;92400.22;2104911;28;20535;-86
2021/10/30 02:45:06;;;;;;;4.70;3.65;;;;;;;-0.01;100.00;92403.19;2095159;28;20043;-85
2021/10/30 02:46:07;;;;;;;6.00;3.47;;;;;;;0.01;100.00;92403.59;2108433;28;20024;-85
2021/10/30 02:47:08;;;;;;;3.95;3.53;;;;;;;0.06;100.00;92402.50;2104997;28;20103;-87
2021/10/30 02:48:09;;;;;;;3.80;3.50;;;;;;;0.08;100.00;92401.00;2104122;28;20043;-85
2021/10/30 02:49:10;;;;;;;7.15;4.13;;;;;;;-0.03;100.00;92400.19;2096332;28;20017;-87
2021/10/30 02:50:11;;;;;;;4.22;3.40;;;;;;;0.03;100.00;92392.72;2105090;28;20028;-86
2021/10/30 02:51:12;;;;;;;5.38;3.75;;;;;;;0.09;100.00;92393.88;2104480;28;20025;-89
2021/10/30 02:52:13;;;;;;;4.55;3.25;;;;;;;-0.03;100.00;92387.81;2113014;28;20031;-86
2021/10/30 02:53:14;;;;;;;5.32;3.63;;;;;;;-0.01;100.00;92385.56;2119355;28;20019;-87
2021/10/30 02:54:15;;;;;;;4.93;3.70;;;;;;;-0.11;100.00;92385.50;2104371;28;20070;-86
2021/10/30 02:55:16;;;;;;;4.32;3.75;;;;;;;-0.13;100.00;92385.09;2096491;28;20020;-87
2021/10/30 02:56:17;;;;;;;6.60;3.65;;;;;;;-0.19;100.00;92386.56;2095808;28;20467;-89
2021/10/30 02:57:19;;;;;;;5.63;3.72;;;;;;;-0.11;100.00;92378.38;2100554;28;20017;-88
2021/10/30 02:58:20;;;;;;;5.90;3.92;;;;;;;-0.05;100.00;92376.16;2096183;28;20465;-85
2021/10/30 02:59:21;;;;;;;4.60;3.42;;;;;;;-0.05;100.00;92376.16;2088405;28;20377;-89
2021/10/30 03:00:22;;;;;;;6.05;4.10;;;;;;;-0.02;100.00;92373.56;2105845;28;20020;-84
2021/10/30 03:01:23;;;;;;;4.75;3.53;;;;;;;-0.01;100.00;92376.94;2104732;28;20600;-90
2021/10/30 03:02:24;;;;;;;6.32;3.97;;;;;;;-0.08;100.00;92375.03;2104608;28;20155;-87
2021/10/30 03:03:32;;;;;;;3.33;2.95;;;;;;;-0.12;100.00;92376.13;2111155;28;20373;-85
2021/10/30 03:04:35;;;;;;;4.60;3.30;;;;;;;-0.09;100.00;92375.38;2106020;28;20032;-86
2021/10/30 03:05:36;;;;;;;4.55;3.58;;;;;;;-0.17;100.00;92374.59;2096285;28;20127;-88
2021/10/30 03:06:38;;;;;;;3.72;3.42;;;;;;;-0.11;100.00;92375.75;2089755;28;20029;-87
2021/10/30 03:07:45;;;;;;;6.10;3.42;;;;;;;-0.18;100.00;92373.06;2094083;28;20049;-85
2021/10/30 03:08:47;;;;;;;4.05;3.22;;;;;;;-0.13;100.00;92366.72;2098988;28;20025;-89
2021/10/30 03:09:50;;;;;;;7.03;3.00;;;;;;;-0.08;100.00;92359.25;2098283;28;20080;-86
2021/10/30 03:10:51;;;;;;;3.28;3.00;;;;;;;0.01;100.00;92364.19;2105465;28;20024;-84
2021/10/30 03:11:52;;;;;;;3.72;3.25;;;;;;;-0.07;100.00;92367.91;2115019;28;20019;-83
2021/10/30 03:12:53;;;;;;;3.28;2.97;;;;;;;-0.12;100.00;92369.00;2116748;28;20019;-85
2021/10/30 03:13:54;;;;;;;4.28;3.25;;;;;;;-0.05;100.00;92363.75;2124795;27;20594;-91
2021/10/30 03:14:55;;;;;;;6.30;3.22;;;;;;;-0.12;100.00;92366.38;2111795;28;20046;-88
2021/10/30 03:15:56;;;;;;;3.63;3.00;;;;;;;-0.10;100.00;92366.75;2103247;28;20485;-86
2021/10/30 03:16:57;;;;;;;4.22;3.25;;;;;;;-0.12;100.00;92365.63;2096468;28;20024;-87
2021/10/30 03:17:58;;;;;;;3.78;3.03;;;;;;;-0.02;100.00;92359.66;2112707;28;20436;-91
2021/10/30 03:18:59;;;;;;;4.45;3.30;;;;;;;-0.04;100.00;92354.03;2111492;28;20063;-88
2021/10/30 03:20:00;;;;;;;4.43;3.55;;;;;;;-0.03;100.00;92352.91;2106060;28;20377;-83
2021/10/30 03:21:01;;;;;;;3.53;2.88;;;;;;;-0.08;100.00;92351.38;2098740;28;20029;-90
2021/10/30 03:22:03;;;;;;;4.78;3.30;;;;;;;-0.07;100.00;92352.88;2082373;28;20025;-88
2021/10/30 03:23:03;;;;;;;4.78;3.03;;;;;;;0.04;100.00;92345.06;2084696;28;20040;-85
2021/10/30 03:24:05;;;;;;;5.15;3.08;;;;;;;-0.07;100.00;92349.50;2084398;28;20057;-87
2021/10/30 03:25:06;;;;;;;7.30;3.13;;;;;;;-0.05;100.00;92352.50;2088865;28;20029;-85
2021/10/30 03:26:07;;;;;;;3.20;2.90;;;;;;;-0.01;100.00;92356.66;2099625;28;20025;-86
2021/10/30 03:27:08;;;;;;;3.35;2.92;;;;;;;-0.07;100.00;92350.25;2098910;28;20780;-87
2021/10/30 03:28:09;;;;;;;6.75;3.13;;;;;;;-0.04;100.00;92349.53;2090290;28;20021;-85
2021/10/30 03:29:10;;;;;;;3.67;3.00;;;;;;;-0.16;100.00;92346.47;2085220;28;20040;-87
2021/10/30 03:30:12;;;;;;;3.30;3.00;;;;;;;-0.15;100.00;92345.34;2081652;28;20028;-85
2021/10/30 03:31:13;;;;;;;3.78;2.97;;;;;;;-0.18;100.00;92344.19;2083834;28;20383;-84
2021/10/30 03:32:13;;;;;;;3.35;2.85;;;;;;;-0.11;100.00;92344.22;2098594;28;20024;-89
2021/10/30 03:33:14;;;;;;;5.55;3.13;;;;;;;-0.16;100.00;92330.69;2107219;28;20020;-84
2021/10/30 03:34:15;;;;;;;4.55;2.90;;;;;;;-0.09;100.00;92325.47;2107000;28;20085;-88
2021/10/30 03:35:16;;;;;;;4.40;3.35;;;;;;;-0.14;100.00;92329.19;2086954;28;20052;-88
2021/10/30 03:36:17;;;;;;;3.63;3.15;;;;;;;-0.18;100.00;92325.81;2098050;28;20512;-88
2021/10/30 03:37:18;;;;;;;4.90;3.47;;;;;;;-0.29;100.00;92323.13;2098060;28;20016;-83
2021/10/30 03:38:20;;;;;;;4.22;3.17;;;;;;;-0.26;100.00;92321.66;2106888;28;20043;-87
2021/10/30 03:39:21;;;;;;;4.47;3.22;;;;;;;-0.29;100.00;92325.00;2096850;28;20024;-85
2021/10/30 03:40:21;;;;;;;4.30;3.00;;;;;;;-0.20;100.00;92325.44;2095750;28;20537;-87
2021/10/30 03:41:22;;;;;;;3.40;3.00;;;;;;;-0.22;100.00;92319.81;2106857;28;20024;-88
2021/10/30 03:42:23;;;;;;;3.60;2.90;;;;;;;-0.11;100.00;92325.84;2105611;28;20579;-86
2021/10/30 03:43:24;;;;;;;5.30;2.92;;;;;;;-0.04;100.00;92320.63;2098404;28;20056;-89
2021/10/30 03:44:25;;;;;;;2.85;2.60;;;;;;;-0.04;100.00;92317.25;2088471;28;20509;-85
2021/10/30 03:45:26;;;;;;;3.65;2.78;;;;;;;-0.12;100.00;92313.09;2082258;28;20131;-88
2021/10/30 03:46:27;;;;;;;3.60;2.72;;;;;;;-0.16;100.00;92310.44;2101074;28;20090;-89
2021/10/30 03:47:29;;;;;;;3.10;2.80;;;;;;;-0.28;100.00;92306.25;2102779;28;20047;-85
2021/10/30 03:48:30;;;;;;;2.78;2.58;;;;;;;-0.22;100.00;92296.16;2107352;28;20028;-87
2021/10/30 03:49:31;;;;;;;6.85;2.80;;;;;;;-0.29;100.00;92310.00;2107548;28;20485;-85
2021/10/30 03:50:32;;;;;;;2.60;2.38;;;;;;;-0.27;100.00;92309.63;2098910;28;20028;-86
2021/10/30 03:51:33;;;;;;;3.25;2.75;;;;;;;-0.38;100.00;92308.81;2082166;28;20021;-83
2021/10/30 03:52:34;;;;;;;2.97;2.67;;;;;;;-0.36;100.00;92309.19;2083953;28;20029;-87
2021/10/30 03:53:34;;;;;;;7.35;2.67;;;;;;;-0.22;100.00;92309.31;2082175;28;20371;-86
2021/10/30 03:54:36;;;;;;;2.80;2.53;;;;;;;-0.14;100.00;92305.56;2082586;28;20071;-85
2021/10/30 03:55:36;;;;;;;4.50;2.63;;;;;;;-0.15;100.00;92305.94;2085196;28;20512;-87
2021/10/30 03:56:38;;;;;;;3.47;2.65;;;;;;;-0.30;100.00;92303.25;2082196;28;20028;-89
2021/10/30 03:57:39;;;;;;;3.63;2.30;;;;;;;-0.25;100.00;92304.78;2090423;28;20017;-83
2021/10/30 03:58:40;;;;;;;2.88;2.67;;;;;;;-0.28;100.00;92298.38;2098876;28;20081;-88
2021/10/30 03:59:40;;;;;;;2.90;2.50;;;;;;;-0.27;100.00;92310.38;2090560;28;20515;-90
2021/10/30 04:00:42;;;;;;;4.82;2.50;;;;;;;-0.37;100.00;92300.56;2090825;28;20033;-89
2021/10/30 04:01:43;;;;;;;3.10;2.25;;;;;;;-0.27;100.00;92299.88;2090651;28;20392;-86
2021/10/30 04:02:44;;;;;;;2.78;2.45;;;;;;;-0.24;100.00;92295.03;2098954;28;20479;-87
2021/10/30 04:03:47;;;;;;;2.30;2.10;;;;;;;-0.28;100.00;92292.38;2106899;28;20020;-89
2021/10/30 04:04:50;;;;;;;4.13;2.50;;;;;;;-0.25;100.00;92296.91;2090818;28;20577;-88
2021/10/30 04:05:53;;;;;;;2.42;2.20;;;;;;;-0.23;100.00;92292.00;2083056;28;20025;-89
2021/10/30 04:06:54;;;;;;;5.15;2.28;;;;;;;-0.18;100.00;92301.41;2090882;28;20020;-85
2021/10/30 04:07:55;;;;;;;2.50;2.30;;;;;;;-0.18;100.00;92294.28;2089959;28;20076;-87
2021/10/30 04:08:58;;;;;;;2.65;2.30;;;;;;;-0.18;100.00;92293.53;2090864;28;20071;-88
2021/10/30 04:10:04;;;;;;;5.18;2.40;;;;;;;-0.24;100.00;92293.13;2094899;28;20396;-85
2021/10/30 04:11:05;;;;;;;2.92;2.28;;;;;;;-0.33;100.00;92296.09;2090519;28;20701;-87
2021/10/30 04:12:07;;;;;;;3.85;2.47;;;;;;;-0.38;100.00;92293.81;2082327;28;20028;-86
2021/10/30 04:13:08;;;;;;;5.43;2.28;;;;;;;-0.33;100.00;92287.47;2090711;28;20021;-90
2021/10/30 04:14:08;;;;;;;3.00;2.28;;;;;;;-0.40;100.00;92284.78;2098663;28;20038;-87
2021/10/30 04:15:10;;;;;;;3.13;2.38;;;;;;;-0.42;100.00;92290.41;2098863;28;20020;-86
2021/10/30 04:16:11;;;;;;;2.88;2.47;;;;;;;-0.47;100.00;92282.91;2098663;28;20021;-84
2021/10/30 04:17:12;;;;;;;2.92;2.40;;;;;;;-0.41;100.00;92285.91;2098600;28;20047;-89
2021/10/30 04:18:13;;;;;;;9.98;2.88;;;;;;;-0.45;100.00;92293.03;2098500;28;20155;-87
2021/10/30 04:19:15;;;;;;;3.03;2.80;;;;;;;-0.53;100.00;92290.38;2107209;28;20024;-87
2021/10/30 04:20:16;;;;;;;6.00;2.75;;;;;;;-0.49;100.00;92290.38;2107558;28;20028;-85
2021/10/30 04:21:20;;;;;;;2.95;2.42;;;;;;;-0.46;100.00;92292.28;2098564;28;20029;-88
2021/10/30 04:22:21;;;;;;;2.90;2.47;;;;;;;-0.45;100.00;92290.41;2083115;28;20850;-85
2021/10/30 04:23:22;;;;;;;2.67;2.42;;;;;;;-0.45;100.00;92300.91;2090327;28;20017;-90
2021/10/30 04:24:23;;;;;;;2.60;2.40;;;;;;;-0.46;100.00;92291.53;2098460;28;20086;-86
2021/10/30 04:25:23;;;;;;;4.82;2.60;;;;;;;-0.51;100.00;92290.00;2098603;28;20017;-89
2021/10/30 04:26:26;;;;;;;2.80;2.42;;;;;;;-0.50;100.00;92294.13;2098533;28;20025;-87
2021/10/30 04:27:27;;;;;;;3.45;2.63;;;;;;;-0.40;100.00;92282.16;2099012;28;20351;-87
2021/10/30 04:28:29;;;;;;;2.67;2.47;;;;;;;-0.45;100.00;92280.66;2098697;28;20042;-84
2021/10/30 04:29:30;;;;;;;6.07;2.58;;;;;;;-0.47;100.00;92296.03;2107024;28;20022;-85
2021/10/30 04:30:32;;;;;;;5.55;2.83;;;;;;;-0.57;100.00;92291.44;2109276;28;20376;-88
2021/10/30 04:31:33;;;;;;;3.58;2.67;;;;;;;-0.55;100.00;92286.59;2098028;28;20029;-85
2021/10/30 04:32:34;;;;;;;2.90;2.60;;;;;;;-0.64;100.00;92281.66;2082114;28;20749;-87
2021/10/30 04:33:37;;;;;;;4.78;2.83;;;;;;;-0.54;100.00;92280.22;2090562;28;20031;-87
2021/10/30 04:34:43;;;;;;;2.92;2.60;;;;;;;-0.53;100.00;92274.63;2085917;28;20598;-86
2021/10/30 04:35:47;;;;;;;2.90;2.42;;;;;;;-0.52;100.00;92270.13;2091947;28;20055;-86
2021/10/30 04:36:48;;;;;;;3.10;2.45;;;;;;;-0.61;100.00;92269.69;2090322;28;20029;-87
2021/10/30 04:37:49;;;;;;;4.70;2.45;;;;;;;-0.69;100.00;92262.91;2098417;28;20012;-84
2021/10/30 04:38:50;;;;;;;3.90;2.60;;;;;;;-0.53;100.00;92263.34;2098408;28;20521;-87
2021/10/30 04:39:53;;;;;;;3.35;2.75;;;;;;;-0.72;100.00;92261.00;2098636;28;20522;-84
2021/10/30 04:40:55;;;;;;;4.75;2.65;;;;;;;-0.63;100.00;92261.41;2090689;28;20056;-83
2021/10/30 04:41:56;;;;;;;4.75;3.10;;;;;;;-0.55;100.00;92255.09;2090288;28;20078;-86
2021/10/30 04:42:56;;;;;;;3.72;2.50;;;;;;;-0.54;100.00;92254.72;2090217;28;20024;-86
2021/10/30 04:43:57;;;;;;;3.10;2.33;;;;;;;-0.55;100.00;92257.72;2102504;28;20103;-87
2021/10/30 04:44:58;;;;;;;3.03;2.70;;;;;;;-0.55;100.00;92252.47;2106655;28;20028;-86
2021/10/30 04:45:59;;;;;;;3.88;2.40;;;;;;;-0.63;100.00;92248.31;2106641;28;20137;-86
2021/10/30 04:47:00;;;;;;;4.28;2.40;;;;;;;-0.49;100.00;92252.88;2098503;28;20021;-85
2021/10/30 04:48:01;;;;;;;5.65;2.70;;;;;;;-0.58;100.00;92253.94;2081728;28;20022;-86
2021/10/30 04:49:03;;;;;;;4.88;2.40;;;;;;;-0.62;100.00;92255.78;2090341;28;20021;-87